Time;durP1;ratioP1;P1;durP2;ratioP2;P2;SDS_P1;SDS_P2;PMS_P1;PMS_P2;Temp;Humidity;BMP_temperature;BMP_pressure;BME280_temperature;BME280_humidity;BME280_pressure;Samples;Min_cycle;Max_cycle;Signal;HPM_P1;HPM_P2
2023/06/09 00:00:55;;;;;;;1.88;1.77;;;14.50;99.90;;;;;;5036997;28;20021;-77
2023/06/09 00:03:21;;;;;;;2.25;2.05;;;14.50;99.90;;;;;;5019662;28;20093;-77
2023/06/09 00:05:49;;;;;;;4.88;2.33;;;14.50;99.90;;;;;;5036592;28;20500;-77
2023/06/09 00:08:15;;;;;;;2.80;2.50;;;14.50;99.90;;;;;;5037347;28;20032;-77
2023/06/09 00:10:42;;;;;;;4.20;2.28;;;14.50;99.90;;;;;;5019625;28;20025;-77
2023/06/09 00:13:07;;;;;;;3.30;2.50;;;14.50;99.90;;;;;;5037066;28;20029;-76
2023/06/09 00:15:33;;;;;;;3.10;2.05;;;14.40;99.90;;;;;;5036823;28;20026;-77
2023/06/09 00:18:02;;;;;;;5.47;2.72;;;14.50;99.90;;;;;;5036223;28;20420;-77
2023/06/09 00:20:33;;;;;;;2.78;2.50;;;14.50;99.90;;;;;;5036124;28;20021;-77
2023/06/09 00:22:59;;;;;;;3.78;2.13;;;14.40;99.90;;;;;;5019131;28;20026;-77
2023/06/09 00:25:25;;;;;;;2.72;2.05;;;14.40;99.90;;;;;;5018741;28;20056;-77
2023/06/09 00:27:51;;;;;;;2.17;1.98;;;14.40;99.90;;;;;;5035728;28;20029;-77
2023/06/09 00:30:21;;;;;;;3.78;2.83;;;14.40;99.90;;;;;;5036204;28;20052;-77
2023/06/09 00:32:47;;;;;;;3.10;2.13;;;14.40;99.90;;;;;;5036683;28;20025;-77
2023/06/09 00:35:13;;;;;;;4.25;2.40;;;14.40;99.90;;;;;;5036310;28;20573;-77
2023/06/09 00:37:39;;;;;;;3.08;2.78;;;14.40;99.90;;;;;;5036254;28;20035;-77
2023/06/09 00:40:05;;;;;;;3.25;2.78;;;14.30;99.90;;;;;;5036543;28;20063;-77
2023/06/09 00:42:31;;;;;;;3.75;2.33;;;14.40;99.90;;;;;;5035881;28;20040;-77
2023/06/09 00:44:57;;;;;;;9.63;2.83;;;14.50;99.90;;;;;;5036001;28;20026;-77
2023/06/09 00:47:23;;;;;;;2.97;2.67;;;14.40;99.90;;;;;;5036377;28;20028;-77
2023/06/09 00:49:49;;;;;;;3.58;2.63;;;14.40;99.90;;;;;;5018237;28;20025;-76
2023/06/09 00:52:16;;;;;;;3.30;2.85;;;14.30;99.90;;;;;;5035741;28;20025;-77
2023/06/09 00:54:41;;;;;;;6.72;2.67;;;14.30;99.90;;;;;;5035443;28;20024;-77
2023/06/09 00:57:08;;;;;;;3.10;2.40;;;14.20;99.90;;;;;;5036529;28;20029;-77
2023/06/09 00:59:35;;;;;;;3.65;2.65;;;14.20;99.90;;;;;;5036024;28;20072;-77
2023/06/09 01:02:03;;;;;;;2.50;2.17;;;14.10;99.90;;;;;;5036303;28;20051;-76
2023/06/09 01:04:32;;;;;;;2.83;2.40;;;14.10;99.90;;;;;;5036177;28;20051;-77
2023/06/09 01:07:08;;;;;;;3.25;2.92;;;14.10;99.90;;;;;;5018325;28;20072;-77
2023/06/09 01:09:42;;;;;;;3.08;2.78;;;14.10;99.90;;;;;;5035370;28;20406;-77
2023/06/09 01:12:32;;;;;;;2.75;2.30;;;14.20;99.90;;;;;;5035366;28;20075;-77
2023/06/09 01:15:01;;;;;;;5.57;2.42;;;14.20;99.90;;;;;;5017341;28;20034;-77
2023/06/09 01:17:29;;;;;;;7.57;2.53;;;14.20;99.90;;;;;;5034820;28;20021;-77
2023/06/09 01:20:05;;;;;;;2.83;2.15;;;14.10;99.90;;;;;;5035320;28;20467;-77
2023/06/09 01:22:33;;;;;;;4.32;2.15;;;14.00;99.90;;;;;;5017430;28;20025;-77
2023/06/09 01:25:11;;;;;;;2.58;2.38;;;14.00;99.90;;;;;;5035119;28;20393;-77
2023/06/09 01:27:39;;;;;;;3.08;2.25;;;14.00;99.90;;;;;;4999777;28;20033;-77
2023/06/09 01:30:07;;;;;;;2.17;1.98;;;13.90;99.90;;;;;;5016938;28;20029;-77
2023/06/09 01:32:34;;;;;;;2.42;2.22;;;13.90;99.90;;;;;;5034251;28;20034;-77
2023/06/09 01:35:00;;;;;;;2.03;1.83;;;13.90;99.90;;;;;;5017665;28;20028;-77
2023/06/09 01:37:26;;;;;;;6.28;1.80;;;13.70;99.90;;;;;;5017003;28;20099;-77
2023/06/09 01:39:52;;;;;;;2.10;1.90;;;13.70;99.90;;;;;;5016983;28;20473;-76
2023/06/09 01:42:18;;;;;;;2.03;1.83;;;13.60;99.90;;;;;;5034567;28;20542;-76
2023/06/09 01:44:44;;;;;;;6.97;3.17;;;13.60;99.90;;;;;;5034453;28;20056;-77
2023/06/09 01:47:09;;;;;;;2.25;1.77;;;13.60;99.90;;;;;;5034567;28;20021;-77
2023/06/09 01:49:59;;;;;;;3.38;2.20;;;13.50;99.90;;;;;;5034048;28;20147;-76
2023/06/09 01:52:37;;;;;;;3.67;1.58;;;13.50;99.90;;;;;;5016170;28;20030;-77
2023/06/09 01:55:28;;;;;;;2.90;2.15;;;13.40;99.90;;;;;;5016197;28;20033;-76
2023/06/09 01:58:00;;;;;;;2.22;2.00;;;13.40;99.90;;;;;;5033282;28;20025;-76
2023/06/09 02:00:27;;;;;;;2.60;2.25;;;13.40;99.90;;;;;;5032950;28;20032;-77
2023/06/09 02:02:58;;;;;;;8.32;2.00;;;13.30;99.90;;;;;;5015181;28;20025;-76
2023/06/09 02:05:24;;;;;;;5.07;2.13;;;13.30;99.90;;;;;;5032975;28;20040;-77
2023/06/09 02:07:53;;;;;;;4.47;2.35;;;13.30;99.90;;;;;;5015067;28;20025;-77
2023/06/09 02:10:21;;;;;;;4.53;2.33;;;13.20;99.90;;;;;;5015316;28;20033;-76
2023/06/09 02:12:47;;;;;;;4.60;3.08;;;13.20;99.90;;;;;;5015145;28;20055;-77
2023/06/09 02:15:13;;;;;;;2.85;2.38;;;13.20;99.90;;;;;;5032575;28;20474;-77
2023/06/09 02:17:39;;;;;;;3.78;2.38;;;13.20;99.90;;;;;;5032715;28;20033;-76
2023/06/09 02:20:08;;;;;;;2.88;2.42;;;13.20;99.90;;;;;;5032928;28;20025;-76
2023/06/09 02:22:35;;;;;;;2.20;1.98;;;13.20;99.90;;;;;;5032543;28;20040;-76
2023/06/09 02:25:01;;;;;;;3.28;2.25;;;13.20;99.90;;;;;;5014845;28;20021;-77
2023/06/09 02:27:27;;;;;;;5.78;2.67;;;13.30;99.90;;;;;;5031978;28;20112;-77
2023/06/09 02:29:52;;;;;;;3.67;2.53;;;13.20;99.90;;;;;;5032600;28;20065;-76
2023/06/09 02:32:18;;;;;;;5.32;2.13;;;13.10;99.90;;;;;;5014859;28;20025;-77
2023/06/09 02:34:45;;;;;;;3.63;3.33;;;13.20;99.90;;;;;;5014679;28;20035;-76
2023/06/09 02:37:11;;;;;;;4.25;2.15;;;13.10;99.90;;;;;;5032609;28;20022;-76
2023/06/09 02:39:36;;;;;;;3.40;2.05;;;13.20;99.90;;;;;;5032260;28;20032;-77
2023/06/09 02:42:03;;;;;;;5.15;2.05;;;13.20;99.90;;;;;;5032422;28;20037;-77
2023/06/09 02:44:31;;;;;;;2.58;2.38;;;13.10;99.90;;;;;;5031263;28;20030;-77
2023/06/09 02:46:58;;;;;;;2.80;2.55;;;13.10;99.90;;;;;;5032338;28;20025;-77
2023/06/09 02:49:24;;;;;;;4.38;2.53;;;13.10;99.90;;;;;;5014417;28;20021;-77
2023/06/09 02:51:49;;;;;;;4.38;3.38;;;13.10;99.90;;;;;;5014789;28;20037;-77
2023/06/09 02:54:15;;;;;;;4.65;3.58;;;13.20;99.90;;;;;;5032295;28;20026;-77
2023/06/09 02:56:41;;;;;;;5.18;3.13;;;13.30;99.90;;;;;;5014532;28;20028;-77
2023/06/09 02:59:07;;;;;;;5.43;3.60;;;13.30;99.90;;;;;;5032592;28;20100;-77
2023/06/09 03:01:34;;;;;;;11.13;3.40;;;13.30;99.90;;;;;;5032384;28;20049;-78
2023/06/09 03:04:06;;;;;;;8.50;3.78;;;13.30;99.90;;;;;;5032391;28;20425;-77
2023/06/09 03:06:33;;;;;;;11.77;2.60;;;13.30;99.90;;;;;;5032501;28;20057;-77
2023/06/09 03:09:03;;;;;;;10.07;3.38;;;13.30;99.90;;;;;;5014918;28;20672;-77
2023/06/09 03:11:29;;;;;;;19.63;2.60;;;13.30;99.90;;;;;;5014812;28;20546;-77
2023/06/09 03:13:55;;;;;;;5.40;2.53;;;13.30;99.90;;;;;;5014947;28;20029;-77
2023/06/09 03:16:21;;;;;;;3.60;2.38;;;13.20;99.90;;;;;;5032184;28;20022;-77
2023/06/09 03:18:47;;;;;;;11.50;3.47;;;13.20;99.90;;;;;;5014660;28;20083;-77
2023/06/09 03:21:13;;;;;;;14.27;3.03;;;13.20;99.90;;;;;;5032343;28;20478;-77
2023/06/09 03:23:40;;;;;;;14.18;4.05;;;13.20;99.90;;;;;;5032268;28;20033;-78
2023/06/09 03:26:06;;;;;;;10.35;2.35;;;13.20;99.90;;;;;;5031545;28;20030;-76
2023/06/09 03:28:32;;;;;;;17.02;2.38;;;13.20;99.90;;;;;;5032135;28;20034;-77
2023/06/09 03:30:58;;;;;;;10.45;2.85;;;13.20;99.90;;;;;;5014390;28;20022;-77
2023/06/09 03:33:25;;;;;;;14.65;2.80;;;13.20;99.90;;;;;;5014712;28;20160;-77
2023/06/09 03:35:50;;;;;;;15.25;3.15;;;13.10;99.90;;;;;;5032216;28;20044;-77
2023/06/09 03:38:16;;;;;;;5.55;2.20;;;13.10;99.90;;;;;;5014491;28;20030;-77
2023/06/09 03:40:42;;;;;;;2.78;2.35;;;13.10;99.90;;;;;;5032060;28;20025;-76
2023/06/09 03:43:08;;;;;;;10.90;2.22;;;13.10;99.90;;;;;;5032613;28;20029;-76
2023/06/09 03:45:34;;;;;;;7.88;2.80;;;13.10;99.90;;;;;;5015714;28;20029;-78
2023/06/09 03:48:00;;;;;;;10.98;2.75;;;13.10;99.90;;;;;;5033638;28;20034;-77
2023/06/09 03:50:26;;;;;;;9.13;2.20;;;13.00;99.90;;;;;;5034247;28;20036;-77
2023/06/09 03:52:52;;;;;;;8.07;3.28;;;13.00;99.90;;;;;;5033551;28;20378;-77
2023/06/09 03:55:22;;;;;;;9.70;2.45;;;13.10;99.90;;;;;;5016707;28;20022;-76
2023/06/09 03:57:48;;;;;;;14.07;2.47;;;13.10;99.90;;;;;;5019411;28;20029;-78
2023/06/09 04:00:15;;;;;;;3.35;2.55;;;13.10;99.90;;;;;;5019464;28;20460;-78
2023/06/09 04:02:41;;;;;;;3.15;2.03;;;13.10;99.90;;;;;;5037334;28;20021;-77
2023/06/09 04:05:07;;;;;;;9.13;2.20;;;13.10;99.90;;;;;;5036923;28;20028;-77
2023/06/09 04:07:32;;;;;;;3.78;2.60;;;13.00;99.90;;;;;;5036900;28;20021;-77
2023/06/09 04:09:58;;;;;;;3.05;2.10;;;13.00;99.90;;;;;;5019906;28;20025;-78
2023/06/09 04:12:24;;;;;;;7.65;2.72;;;13.00;99.90;;;;;;5035983;28;20382;-77
2023/06/09 04:14:50;;;;;;;18.50;2.70;;;13.10;99.90;;;;;;5018170;28;20032;-78
2023/06/09 04:17:15;;;;;;;3.88;2.08;;;13.00;99.90;;;;;;5037562;28;20048;-78
2023/06/09 04:19:41;;;;;;;2.88;2.40;;;14.10;99.90;;;;;;5037252;28;20049;-77
2023/06/09 04:22:07;;;;;;;3.22;2.92;;;14.80;99.90;;;;;;5019530;28;20061;-77
2023/06/09 04:24:34;;;;;;;9.68;3.03;;;15.70;99.90;;;;;;5037903;28;20116;-78
2023/06/09 04:27:02;;;;;;;10.75;3.28;;;16.00;99.90;;;;;;5037606;28;20033;-78
2023/06/09 04:29:28;;;;;;;4.30;2.40;;;16.10;99.90;;;;;;5019872;28;20123;-77
2023/06/09 04:31:58;;;;;;;4.63;2.58;;;16.10;99.90;;;;;;5020332;28;20110;-78
2023/06/09 04:34:27;;;;;;;8.43;2.60;;;16.00;99.90;;;;;;5021183;28;20018;-78
2023/06/09 04:36:55;;;;;;;3.47;2.03;;;16.20;99.90;;;;;;5020220;28;20048;-76
2023/06/09 04:39:21;;;;;;;2.30;1.88;;;15.90;99.90;;;;;;5037769;28;20041;-78
2023/06/09 04:41:52;;;;;;;4.90;2.03;;;16.00;99.90;;;;;;5020245;28;20041;-77
2023/06/09 04:44:18;;;;;;;2.00;1.80;;;16.00;99.90;;;;;;5036735;28;20031;-76
2023/06/09 04:46:46;;;;;;;2.10;1.90;;;16.00;99.90;;;;;;5019413;28;20445;-78
2023/06/09 04:49:12;;;;;;;5.85;2.03;;;16.10;99.90;;;;;;5036753;28;20044;-76
2023/06/09 04:51:48;;;;;;;2.92;2.63;;;16.00;99.90;;;;;;5037560;28;20479;-78
2023/06/09 04:54:18;;;;;;;6.60;2.88;;;16.10;99.90;;;;;;5019612;28;20022;-79
2023/06/09 04:56:44;;;;;;;3.83;3.42;;;16.30;99.90;;;;;;5037673;28;20509;-78
2023/06/09 04:59:11;;;;;;;3.92;3.28;;;16.50;99.90;;;;;;5037925;28;20025;-76
2023/06/09 05:01:38;;;;;;;5.03;2.40;;;16.40;99.90;;;;;;5037746;28;20148;-78
2023/06/09 05:04:07;;;;;;;2.97;1.98;;;16.40;99.90;;;;;;5037349;28;20025;-76
2023/06/09 05:06:33;;;;;;;2.13;1.90;;;16.10;99.90;;;;;;5034838;28;20029;-78
2023/06/09 05:08:59;;;;;;;2.15;1.80;;;16.00;99.90;;;;;;5037199;28;20036;-77
2023/06/09 05:11:25;;;;;;;2.92;1.90;;;16.00;99.90;;;;;;5036183;28;20032;-79
2023/06/09 05:13:51;;;;;;;1.67;1.58;;;16.00;99.90;;;;;;5016996;28;20017;-77
2023/06/09 05:16:16;;;;;;;2.00;1.90;;;15.80;99.90;;;;;;5019221;28;20022;-76
2023/06/09 05:18:42;;;;;;;2.03;1.92;;;15.90;99.90;;;;;;5037023;28;20017;-78
2023/06/09 05:21:08;;;;;;;3.90;2.28;;;16.00;99.90;;;;;;5019616;28;20029;-78
2023/06/09 05:23:34;;;;;;;2.22;2.05;;;16.00;99.90;;;;;;5036433;28;20053;-78
2023/06/09 05:26:00;;;;;;;2.25;2.00;;;15.90;99.90;;;;;;5018869;28;20026;-78
2023/06/09 05:28:26;;;;;;;1.73;1.63;;;16.00;99.90;;;;;;5036930;28;20082;-77
2023/06/09 05:30:52;;;;;;;1.90;1.80;;;16.00;99.90;;;;;;5037045;28;20064;-78
2023/06/09 05:33:17;;;;;;;2.13;1.92;;;16.30;99.90;;;;;;5036938;28;20104;-77
2023/06/09 05:35:43;;;;;;;2.00;1.90;;;16.30;99.90;;;;;;5019000;28;20022;-77
2023/06/09 05:38:09;;;;;;;5.57;3.92;;;16.40;99.90;;;;;;5018875;28;20033;-76
2023/06/09 05:40:34;;;;;;;1.73;1.60;;;16.40;99.90;;;;;;5019193;28;20065;-78
2023/06/09 05:43:00;;;;;;;4.63;1.73;;;16.50;99.90;;;;;;5037137;28;20036;-77
2023/06/09 05:45:26;;;;;;;1.67;1.58;;;16.70;99.90;;;;;;5019340;28;20121;-77
2023/06/09 05:47:51;;;;;;;3.15;1.77;;;16.80;99.90;;;;;;5018341;28;20022;-76
2023/06/09 05:50:17;;;;;;;2.25;1.85;;;16.90;99.90;;;;;;5036616;28;20056;-77
2023/06/09 05:52:43;;;;;;;2.38;1.88;;;16.90;99.90;;;;;;5036439;28;20030;-77
2023/06/09 05:55:09;;;;;;;3.42;1.88;;;17.00;99.90;;;;;;5018391;28;20061;-77
2023/06/09 05:57:34;;;;;;;2.45;1.63;;;17.10;99.90;;;;;;5018094;28;20029;-77
2023/06/09 06:00:07;;;;;;;4.65;1.83;;;17.40;99.90;;;;;;5017650;28;20087;-77
2023/06/09 06:02:32;;;;;;;2.10;1.90;;;17.80;99.90;;;;;;5017782;28;20394;-77
2023/06/09 06:04:58;;;;;;;2.13;1.55;;;17.80;99.90;;;;;;5034792;28;20028;-75
2023/06/09 06:07:23;;;;;;;1.75;1.65;;;17.90;99.90;;;;;;5032270;28;20021;-76
2023/06/09 06:09:49;;;;;;;2.10;1.90;;;17.80;99.90;;;;;;5014508;28;20029;-76
2023/06/09 06:12:15;;;;;;;1.73;1.63;;;17.90;99.90;;;;;;5031860;28;20026;-75
2023/06/09 06:14:40;;;;;;;2.42;2.10;;;17.90;99.90;;;;;;5032422;28;20474;-75
2023/06/09 06:17:06;;;;;;;2.28;1.90;;;18.00;99.90;;;;;;5032331;28;20405;-76
2023/06/09 06:19:31;;;;;;;2.33;2.13;;;18.00;99.90;;;;;;5031778;28;20442;-76
2023/06/09 06:21:57;;;;;;;2.83;2.20;;;18.10;99.90;;;;;;5014541;28;20099;-76
2023/06/09 06:24:23;;;;;;;2.67;1.98;;;18.30;99.90;;;;;;5032134;28;20037;-76
2023/06/09 06:26:48;;;;;;;2.05;1.77;;;18.40;99.90;;;;;;5031786;28;20033;-76
2023/06/09 06:29:14;;;;;;;2.83;2.00;;;18.40;99.90;;;;;;5031868;28;20053;-76
2023/06/09 06:31:39;;;;;;;2.55;2.20;;;18.40;99.90;;;;;;5031904;28;20381;-76
2023/06/09 06:34:05;;;;;;;2.63;2.20;;;18.40;99.90;;;;;;5031767;28;20044;-76
2023/06/09 06:36:31;;;;;;;2.70;2.45;;;18.50;99.90;;;;;;5013565;28;20386;-76
2023/06/09 06:38:57;;;;;;;3.58;2.30;;;18.60;99.90;;;;;;5031198;28;20017;-75
2023/06/09 06:41:22;;;;;;;2.78;2.58;;;18.70;99.90;;;;;;5014633;28;20120;-77
2023/06/09 06:43:49;;;;;;;2.85;1.88;;;18.70;99.90;;;;;;5033554;28;20405;-77
2023/06/09 06:46:17;;;;;;;4.80;2.53;;;18.90;99.90;;;;;;5033426;28;20028;-76
2023/06/09 06:48:43;;;;;;;2.72;2.38;;;19.00;99.90;;;;;;5016446;28;20105;-77
2023/06/09 06:51:09;;;;;;;2.78;2.10;;;19.20;99.90;;;;;;5016018;28;20041;-77
2023/06/09 06:53:38;;;;;;;2.65;2.00;;;19.40;99.90;;;;;;5034390;28;20044;-77
2023/06/09 06:56:04;;;;;;;2.58;2.25;;;19.60;99.90;;;;;;5034752;28;20490;-75
2023/06/09 06:58:29;;;;;;;2.75;2.15;;;19.80;99.90;;;;;;5035013;28;20160;-78
2023/06/09 07:00:55;;;;;;;2.20;2.00;;;19.80;99.90;;;;;;5034050;28;20445;-77
2023/06/09 07:03:24;;;;;;;2.63;2.40;;;20.00;99.90;;;;;;5035004;28;20041;-77
2023/06/09 07:05:51;;;;;;;2.78;2.22;;;19.90;99.90;;;;;;5034449;28;20052;-77
2023/06/09 07:08:17;;;;;;;2.35;2.15;;;20.00;99.90;;;;;;5034621;28;20033;-77
2023/06/09 07:10:43;;;;;;;2.40;2.20;;;20.10;99.90;;;;;;5014962;28;20026;-77
2023/06/09 07:13:08;;;;;;;2.47;2.10;;;20.10;99.90;;;;;;5017294;28;20048;-77
2023/06/09 07:15:36;;;;;;;1.77;1.67;;;20.20;99.90;;;;;;5016743;28;20067;-77
2023/06/09 07:18:03;;;;;;;5.68;1.92;;;20.40;99.90;;;;;;5035738;28;20021;-78
2023/06/09 07:20:28;;;;;;;2.65;2.45;;;20.70;99.90;;;;;;5017975;28;20518;-76
2023/06/09 07:22:54;;;;;;;4.18;2.20;;;20.90;99.90;;;;;;5017612;28;20032;-78
2023/06/09 07:25:20;;;;;;;3.35;2.78;;;21.10;99.90;;;;;;5016269;28;20025;-78
2023/06/09 07:27:45;;;;;;;3.53;2.13;;;21.00;99.90;;;;;;5016146;28;20026;-77
2023/06/09 07:30:11;;;;;;;2.70;2.50;;;21.10;99.90;;;;;;5015979;28;20029;-78
2023/06/09 07:32:39;;;;;;;2.63;2.40;;;21.40;99.90;;;;;;5035961;28;20018;-77
2023/06/09 07:35:05;;;;;;;2.33;1.75;;;21.70;99.90;;;;;;5040022;28;20101;-77
2023/06/09 07:37:31;;;;;;;1.90;1.80;;;21.80;99.90;;;;;;5020724;28;20025;-77
2023/06/09 07:39:58;;;;;;;2.80;2.60;;;22.00;99.90;;;;;;5039429;28;20029;-77
2023/06/09 07:42:24;;;;;;;2.15;1.92;;;22.00;99.90;;;;;;5040046;28;20116;-78
2023/06/09 07:44:50;;;;;;;2.45;2.25;;;22.10;99.90;;;;;;5038455;28;20041;-77
2023/06/09 07:47:16;;;;;;;2.05;1.85;;;22.20;99.90;;;;;;5021941;28;20029;-77
2023/06/09 07:49:41;;;;;;;2.45;2.25;;;22.30;99.90;;;;;;5021865;28;20421;-77
2023/06/09 07:52:08;;;;;;;2.53;1.98;;;22.10;99.90;;;;;;5037925;28;20030;-77
2023/06/09 07:54:34;;;;;;;3.38;3.08;;;22.00;99.90;;;;;;5020482;28;20026;-77
2023/06/09 07:56:59;;;;;;;3.90;2.30;;;22.20;99.90;;;;;;5038127;28;20079;-77
2023/06/09 07:59:25;;;;;;;2.55;2.30;;;22.00;99.90;;;;;;5038399;28;20478;-77
2023/06/09 08:01:51;;;;;;;3.38;2.47;;;22.10;99.90;;;;;;5038592;28;20032;-77
2023/06/09 08:04:16;;;;;;;2.60;2.25;;;22.00;99.90;;;;;;5037628;28;20108;-77
2023/06/09 08:06:43;;;;;;;2.30;2.08;;;22.30;99.90;;;;;;5035427;28;20064;-77
2023/06/09 08:09:09;;;;;;;3.83;2.35;;;22.50;99.90;;;;;;5019651;28;20025;-77
2023/06/09 08:11:34;;;;;;;2.28;1.98;;;22.70;99.90;;;;;;5038037;28;20032;-77
2023/06/09 08:14:00;;;;;;;2.72;2.53;;;22.80;99.90;;;;;;5036934;28;20022;-78
2023/06/09 08:16:27;;;;;;;2.65;2.45;;;23.00;99.90;;;;;;5017650;28;20018;-76
2023/06/09 08:18:52;;;;;;;2.20;2.00;;;22.90;99.90;;;;;;5037010;28;20040;-77
2023/06/09 08:21:18;;;;;;;2.20;2.03;;;22.80;99.90;;;;;;5016995;28;20542;-76
2023/06/09 08:23:44;;;;;;;1.77;1.67;;;22.70;99.90;;;;;;5036213;28;20379;-77
2023/06/09 08:26:10;;;;;;;2.00;1.80;;;23.00;99.60;;;;;;5037351;28;20363;-77
2023/06/09 08:28:36;;;;;;;2.35;2.13;;;22.90;99.90;;;;;;5036782;28;20478;-77
2023/06/09 08:31:03;;;;;;;3.05;1.90;;;23.20;99.90;;;;;;5036906;28;20077;-76
2023/06/09 08:33:33;;;;;;;2.38;1.80;;;23.40;99.00;;;;;;5037213;28;20104;-78
2023/06/09 08:36:04;;;;;;;3.08;2.25;;;23.60;96.40;;;;;;5037409;28;20049;-76
2023/06/09 08:38:35;;;;;;;3.33;1.92;;;23.50;95.30;;;;;;5034380;28;20040;-77
2023/06/09 08:41:08;;;;;;;1.67;1.58;;;23.70;95.20;;;;;;5041180;28;20123;-75
2023/06/09 08:43:34;;;;;;;1.88;1.77;;;23.70;93.30;;;;;;5029940;28;20032;-77
2023/06/09 08:46:03;;;;;;;1.55;1.45;;;23.90;93.80;;;;;;5047260;28;20030;-77
2023/06/09 08:48:30;;;;;;;1.50;1.40;;;23.80;90.90;;;;;;5030616;28;20120;-77
2023/06/09 08:50:57;;;;;;;4.07;1.30;;;23.80;90.40;;;;;;5048097;28;20037;-77
2023/06/09 08:53:24;;;;;;;1.65;1.55;;;23.80;90.20;;;;;;5049025;28;20018;-76
2023/06/09 08:55:51;;;;;;;1.90;1.33;;;23.70;88.40;;;;;;5019681;28;20025;-76
2023/06/09 08:58:18;;;;;;;3.58;1.40;;;23.70;90.70;;;;;;5016076;28;20099;-76
2023/06/09 09:00:44;;;;;;;1.95;1.55;;;23.90;90.10;;;;;;5033825;28;20030;-76
2023/06/09 09:03:09;;;;;;;2.97;1.30;;;24.20;89.40;;;;;;5015578;28;20021;-76
2023/06/09 09:05:35;;;;;;;5.25;1.40;;;24.30;90.50;;;;;;5033681;28;20025;-77
2023/06/09 09:08:01;;;;;;;1.77;1.67;;;24.40;90.00;;;;;;5016157;28;20536;-76
2023/06/09 09:10:28;;;;;;;1.85;1.48;;;24.40;89.60;;;;;;5033470;28;20064;-75
2023/06/09 09:12:58;;;;;;;1.63;1.52;;;24.50;88.90;;;;;;5033451;28;20022;-75
2023/06/09 09:15:27;;;;;;;1.42;1.33;;;24.60;87.10;;;;;;5033420;28;20052;-74
2023/06/09 09:17:53;;;;;;;1.80;1.70;;;24.80;88.60;;;;;;5033413;28;20433;-77
2023/06/09 09:20:19;;;;;;;2.05;1.58;;;24.90;82.20;;;;;;5034469;28;20021;-77
2023/06/09 09:22:46;;;;;;;1.45;1.30;;;24.90;85.10;;;;;;5034351;28;20053;-75
2023/06/09 09:25:22;;;;;;;1.55;1.45;;;24.70;82.20;;;;;;5032939;28;20033;-76
2023/06/09 09:28:10;;;;;;;1.92;1.50;;;25.20;88.70;;;;;;5033006;28;20029;-76
2023/06/09 09:30:50;;;;;;;1.67;1.58;;;25.50;85.10;;;;;;5033190;28;20033;-75
2023/06/09 09:33:22;;;;;;;1.27;1.17;;;25.50;83.20;;;;;;5033107;28;20022;-76
2023/06/09 09:36:01;;;;;;;1.70;1.60;;;25.50;83.30;;;;;;5015260;28;20053;-76
2023/06/09 09:38:29;;;;;;;1.50;1.38;;;25.00;85.00;;;;;;5015022;28;20025;-76
2023/06/09 09:40:58;;;;;;;3.03;2.00;;;24.90;86.50;;;;;;5032837;28;20052;-76
2023/06/09 09:43:30;;;;;;;2.97;2.65;;;24.80;85.80;;;;;;5033052;28;20040;-76
2023/06/09 09:46:01;;;;;;;3.05;1.63;;;24.70;87.60;;;;;;5032817;28;20017;-76
2023/06/09 09:48:26;;;;;;;1.90;1.50;;;24.20;85.00;;;;;;5032668;28;20026;-76
2023/06/09 09:50:54;;;;;;;1.70;1.60;;;24.10;86.10;;;;;;5014870;28;20030;-76
2023/06/09 09:53:25;;;;;;;1.58;1.48;;;24.10;87.10;;;;;;5032586;28;20018;-76
2023/06/09 09:56:00;;;;;;;1.75;1.65;;;23.80;86.70;;;;;;5032596;28;20097;-76
2023/06/09 09:58:35;;;;;;;1.40;1.30;;;23.90;89.00;;;;;;5032520;28;20109;-76
2023/06/09 10:01:07;;;;;;;2.58;1.75;;;23.70;88.40;;;;;;5015647;28;20547;-77
2023/06/09 10:03:42;;;;;;;1.73;1.42;;;23.80;88.70;;;;;;5015440;28;20037;-75
2023/06/09 10:06:12;;;;;;;2.45;1.88;;;23.80;92.00;;;;;;5033089;28;20440;-76
2023/06/09 10:08:40;;;;;;;1.70;1.60;;;23.90;94.90;;;;;;5033033;28;20075;-76
2023/06/09 10:11:07;;;;;;;4.22;3.42;;;23.50;95.00;;;;;;5033197;28;20101;-76
2023/06/09 10:13:33;;;;;;;2.60;1.52;;;23.10;95.80;;;;;;5032714;28;20033;-76
2023/06/09 10:15:59;;;;;;;2.03;1.90;;;22.90;97.40;;;;;;5032397;28;20083;-76
2023/06/09 10:18:26;;;;;;;3.28;1.52;;;22.70;99.00;;;;;;5032595;28;20029;-77
2023/06/09 10:20:54;;;;;;;2.47;2.25;;;22.70;99.50;;;;;;5032586;28;20119;-75
2023/06/09 10:23:21;;;;;;;1.65;1.55;;;22.60;99.90;;;;;;5032418;28;20523;-76
2023/06/09 10:25:48;;;;;;;1.80;1.45;;;22.60;99.90;;;;;;5032719;28;20390;-76
2023/06/09 10:28:16;;;;;;;2.15;1.98;;;22.70;98.50;;;;;;5032164;28;20021;-77
2023/06/09 10:30:42;;;;;;;3.95;1.50;;;22.80;97.70;;;;;;5014622;28;20486;-75
2023/06/09 10:33:10;;;;;;;1.73;1.63;;;22.80;97.50;;;;;;5015198;28;20026;-75
2023/06/09 10:35:38;;;;;;;1.73;1.63;;;22.70;98.10;;;;;;5032040;28;20017;-77
2023/06/09 10:38:22;;;;;;;2.60;2.13;;;22.70;97.80;;;;;;5032331;28;20028;-77
2023/06/09 10:40:57;;;;;;;1.98;1.85;;;23.00;96.50;;;;;;5032262;28;20425;-76
2023/06/09 10:44:17;;;;;;;1.85;1.75;;;23.30;98.30;;;;;;5032081;28;20030;-76
2023/06/09 10:46:45;;;;;;;1.70;1.60;;;23.80;96.00;;;;;;4988582;28;20080;-76
2023/06/09 10:49:40;;;;;;;3.03;1.75;;;24.20;95.40;;;;;;5014201;28;20025;-76
2023/06/09 10:52:35;;;;;;;2.95;1.50;;;24.20;94.00;;;;;;5030442;28;20518;-76
2023/06/09 10:55:15;;;;;;;2.33;2.00;;;24.40;93.20;;;;;;5013861;28;20029;-76
2023/06/09 10:57:41;;;;;;;1.52;1.40;;;24.30;92.80;;;;;;5034561;28;20500;-77
2023/06/09 11:00:11;;;;;;;1.95;1.70;;;24.20;92.40;;;;;;5014105;28;20032;-76
2023/06/09 11:02:39;;;;;;;2.03;1.63;;;24.20;93.60;;;;;;5031839;28;20018;-75
2023/06/09 11:05:05;;;;;;;1.98;1.58;;;24.20;93.80;;;;;;5032147;28;20453;-76
2023/06/09 11:07:38;;;;;;;2.08;1.88;;;24.20;90.80;;;;;;5035844;28;20045;-76
2023/06/09 11:10:06;;;;;;;2.15;1.90;;;24.40;92.10;;;;;;5017950;28;20418;-76
2023/06/09 11:12:46;;;;;;;1.42;1.33;;;24.70;93.20;;;;;;5035801;28;20029;-76
2023/06/09 11:15:16;;;;;;;1.85;1.65;;;25.20;92.80;;;;;;5017903;28;20132;-76
2023/06/09 11:17:44;;;;;;;1.20;1.10;;;25.50;88.40;;;;;;5035439;28;20021;-75
2023/06/09 11:20:10;;;;;;;1.50;1.40;;;25.60;87.40;;;;;;5017938;28;20032;-76
2023/06/09 11:22:41;;;;;;;1.33;1.25;;;25.90;86.90;;;;;;5017376;28;20112;-74
2023/06/09 11:25:17;;;;;;;1.60;1.50;;;26.10;87.00;;;;;;5035351;28;20049;-77
2023/06/09 11:27:43;;;;;;;;;;;25.90;84.60;;;;;;5019611;28;20090;-77
2023/06/09 11:30:20;;;;;;;3.60;1.58;;;25.80;85.70;;;;;;5019357;28;20316;-77
2023/06/09 11:33:03;;;;;;;1.98;1.25;;;25.80;84.30;;;;;;5019187;28;20100;-75
2023/06/09 11:35:28;;;;;;;1.67;1.50;;;25.70;84.60;;;;;;5016868;28;20553;-77
2023/06/09 11:37:56;;;;;;;1.55;1.30;;;25.70;85.50;;;;;;5034741;28;20124;-76
2023/06/09 11:40:22;;;;;;;1.45;1.20;;;25.80;81.40;;;;;;5016694;28;20021;-77
2023/06/09 11:42:48;;;;;;;0.85;0.82;;;26.00;78.90;;;;;;5034999;28;20025;-77
2023/06/09 11:45:15;;;;;;;1.20;1.10;;;25.90;80.90;;;;;;5034727;28;20025;-77
2023/06/09 11:47:42;;;;;;;1.20;1.10;;;26.20;82.90;;;;;;5034713;28;20018;-76
2023/06/09 11:50:13;;;;;;;1.52;1.33;;;26.50;81.80;;;;;;5017520;28;20498;-77
2023/06/09 11:52:43;;;;;;;1.92;0.77;;;26.60;78.80;;;;;;5037147;28;20025;-76
2023/06/09 11:55:11;;;;;;;1.15;1.00;;;26.50;76.20;;;;;;5036884;28;20398;-77
2023/06/09 11:57:37;;;;;;;1.27;1.17;;;26.50;75.10;;;;;;5017104;28;20025;-77
2023/06/09 12:00:14;;;;;;;1.30;1.05;;;26.70;77.30;;;;;;5034763;28;20029;-77
2023/06/09 12:02:44;;;;;;;1.33;1.23;;;27.10;77.60;;;;;;5016918;28;20119;-77
2023/06/09 12:05:14;;;;;;;1.55;1.45;;;27.30;76.20;;;;;;5035456;28;20018;-76
2023/06/09 12:07:44;;;;;;;1.40;1.30;;;27.30;75.20;;;;;;5035152;28;20072;-77
2023/06/09 12:10:10;;;;;;;1.45;1.35;;;27.30;75.30;;;;;;5034489;28;20029;-76
2023/06/09 12:12:57;;;;;;;1.30;1.20;;;27.20;74.50;;;;;;5034529;28;20120;-76
2023/06/09 12:15:28;;;;;;;1.38;1.30;;;26.90;74.90;;;;;;5034292;28;20028;-75
2023/06/09 12:17:56;;;;;;;0.98;0.98;;;26.50;74.80;;;;;;5034027;28;20465;-76
2023/06/09 12:20:28;;;;;;;1.50;1.40;;;25.90;75.20;;;;;;5034012;28;20018;-77
2023/06/09 12:22:56;;;;;;;1.40;1.30;;;25.90;77.40;;;;;;5016701;28;20502;-76
2023/06/09 12:25:27;;;;;;;1.35;1.25;;;25.90;74.10;;;;;;5034160;28;20083;-77
2023/06/09 12:27:54;;;;;;;3.40;1.70;;;25.70;76.90;;;;;;5033492;28;20029;-77
2023/06/09 12:30:47;;;;;;;1.13;1.02;;;25.50;76.50;;;;;;5016037;28;20461;-76
2023/06/09 12:33:15;;;;;;;1.25;1.13;;;25.40;76.00;;;;;;5016597;28;20445;-77
2023/06/09 12:35:43;;;;;;;1.33;1.23;;;25.20;77.10;;;;;;5033647;28;20363;-76
2023/06/09 12:38:13;;;;;;;1.33;1.23;;;25.20;78.10;;;;;;5016479;28;20021;-75
2023/06/09 12:40:46;;;;;;;1.00;1.00;;;25.00;78.10;;;;;;5035626;28;20642;-78
2023/06/09 12:43:13;;;;;;;1.25;1.15;;;24.80;80.20;;;;;;5018854;28;20026;-76
2023/06/09 12:45:41;;;;;;;1.00;1.00;;;24.80;81.50;;;;;;5034164;28;20054;-76
2023/06/09 12:48:07;;;;;;;0.95;0.90;;;24.60;82.60;;;;;;5015129;28;20021;-76
2023/06/09 12:50:34;;;;;;;2.65;1.73;;;24.20;82.90;;;;;;5034253;28;20497;-76